Time;durP1;ratioP1;P1;durP2;ratioP2;P2;SDS_P1;SDS_P2;PMS_P1;PMS_P2;Temp;Humidity;BMP_temperature;BMP_pressure;BME280_temperature;BME280_humidity;BME280_pressure;Samples;Min_cycle;Max_cycle;Signal;HPM_P1;HPM_P2
2022/06/17 00:00:53;;;;;;;15.15;13.45;;;13.80;99.90;;;;;;5063286;28;20041;-80
2022/06/17 00:03:19;;;;;;;22.00;13.82;;;14.00;99.90;;;;;;5060943;28;20032;-74
2022/06/17 00:05:45;;;;;;;15.45;13.40;;;14.00;99.90;;;;;;5052880;28;20499;-80
2022/06/17 00:08:33;;;;;;;15.65;13.27;;;14.10;99.90;;;;;;5063047;28;20048;-79
2022/06/17 00:10:59;;;;;;;18.95;13.27;;;14.10;99.90;;;;;;5061038;28;20133;-80
2022/06/17 00:13:24;;;;;;;14.90;12.02;;;14.30;99.90;;;;;;5044144;28;20079;-80
2022/06/17 00:15:51;;;;;;;14.68;11.75;;;14.20;99.90;;;;;;5063593;28;20036;-81
2022/06/17 00:18:19;;;;;;;14.75;12.05;;;14.30;99.90;;;;;;5060843;28;20094;-81
2022/06/17 00:20:47;;;;;;;14.43;11.15;;;14.40;99.90;;;;;;5063273;28;20059;-79
2022/06/17 00:23:19;;;;;;;17.15;11.18;;;14.40;99.90;;;;;;5061753;28;20113;-80
2022/06/17 00:25:46;;;;;;;12.40;11.10;;;14.40;99.90;;;;;;5050230;28;20060;-80
2022/06/17 00:28:14;;;;;;;12.48;10.90;;;14.30;99.90;;;;;;5041525;28;20084;-79
2022/06/17 00:30:40;;;;;;;15.82;10.45;;;14.40;99.90;;;;;;5046098;28;20648;-76
2022/06/17 00:33:07;;;;;;;13.43;10.10;;;14.40;99.90;;;;;;5057561;28;20045;-79
2022/06/17 00:35:42;;;;;;;12.82;11.52;;;14.50;99.90;;;;;;5061190;28;20032;-80
2022/06/17 00:38:17;;;;;;;13.73;11.27;;;14.50;99.90;;;;;;5053036;28;20113;-80
2022/06/17 00:40:44;;;;;;;13.25;10.80;;;14.40;99.90;;;;;;5042744;28;20049;-79
2022/06/17 00:43:33;;;;;;;15.27;9.95;;;14.30;99.90;;;;;;5046174;28;20055;-79
2022/06/17 00:46:14;;;;;;;13.63;10.27;;;14.40;99.90;;;;;;5057599;28;20328;-79
2022/06/17 00:48:44;;;;;;;20.33;10.82;;;14.30;99.90;;;;;;5057219;28;20072;-73
2022/06/17 00:51:26;;;;;;;13.20;9.98;;;14.20;99.90;;;;;;5044112;28;20047;-79
2022/06/17 00:53:59;;;;;;;12.40;10.55;;;14.30;99.90;;;;;;5061199;28;20044;-80
2022/06/17 00:56:32;;;;;;;12.18;10.63;;;14.30;99.90;;;;;;5060933;28;20036;-80
2022/06/17 00:59:00;;;;;;;15.75;11.40;;;14.30;99.90;;;;;;5062483;28;20045;-80
2022/06/17 01:01:39;;;;;;;11.77;10.52;;;14.30;99.90;;;;;;5043055;28;20131;-81
2022/06/17 01:04:09;;;;;;;14.88;11.20;;;14.30;99.90;;;;;;5059518;28;20040;-80
2022/06/17 01:06:40;;;;;;;10.80;9.75;;;14.30;99.90;;;;;;5063190;28;20044;-80
2022/06/17 01:12:01;;;;;;;13.90;10.15;;;14.20;99.90;;;;;;5062249;28;20055;-79
2022/06/17 01:14:28;;;;;;;11.48;10.27;;;14.20;99.90;;;;;;5061227;28;20081;-79
2022/06/17 01:16:55;;;;;;;16.50;10.63;;;14.30;99.90;;;;;;5058180;28;20097;-79
2022/06/17 01:19:31;;;;;;;12.38;10.55;;;14.30;99.90;;;;;;5059796;28;20398;-79
2022/06/17 01:22:14;;;;;;;12.85;10.50;;;14.20;99.90;;;;;;5060128;28;20044;-80
2022/06/17 01:24:41;;;;;;;12.88;10.23;;;14.30;99.90;;;;;;5058333;28;20497;-80
2022/06/17 01:27:07;;;;;;;12.15;10.90;;;14.30;99.90;;;;;;5059949;28;20148;-80
2022/06/17 01:29:34;;;;;;;13.18;9.88;;;14.20;99.90;;;;;;5059171;28;20055;-79
2022/06/17 01:32:01;;;;;;;17.67;10.63;;;14.20;99.90;;;;;;5061964;28;20082;-80
2022/06/17 01:34:27;;;;;;;14.90;11.50;;;14.20;99.90;;;;;;5045518;28;20029;-81
2022/06/17 01:36:54;;;;;;;13.02;10.65;;;14.20;99.90;;;;;;5061354;28;20045;-80
2022/06/17 01:39:20;;;;;;;11.50;10.20;;;14.20;99.90;;;;;;5062084;28;20044;-80
2022/06/17 01:41:47;;;;;;;11.30;9.90;;;14.20;99.90;;;;;;5047995;28;20059;-80
2022/06/17 01:44:32;;;;;;;13.45;10.00;;;14.20;99.90;;;;;;5065243;28;20032;-80
2022/06/17 01:46:59;;;;;;;11.20;10.13;;;14.20;99.90;;;;;;5065428;28;20051;-79
2022/06/17 01:49:41;;;;;;;11.77;9.35;;;14.20;99.90;;;;;;5053767;28;20044;-83
2022/06/17 01:52:11;;;;;;;11.02;9.63;;;14.20;99.90;;;;;;5063209;28;20094;-79
2022/06/17 01:54:58;;;;;;;16.23;10.57;;;14.20;99.90;;;;;;5063856;28;20051;-81
2022/06/17 01:57:38;;;;;;;12.55;9.43;;;14.30;99.90;;;;;;5060573;28;20040;-79
2022/06/17 02:00:21;;;;;;;13.50;10.25;;;14.30;99.90;;;;;;5062642;28;20093;-75
2022/06/17 02:02:52;;;;;;;10.95;9.85;;;14.30;99.90;;;;;;5048174;28;20037;-80
2022/06/17 02:05:21;;;;;;;13.18;9.63;;;14.30;99.90;;;;;;5066044;28;20409;-80
2022/06/17 02:07:55;;;;;;;14.95;10.40;;;14.30;99.90;;;;;;5046994;28;20321;-80
2022/06/17 02:10:23;;;;;;;17.25;10.30;;;14.30;99.90;;;;;;5064312;28;20097;-75
2022/06/17 02:12:49;;;;;;;13.95;9.23;;;14.20;99.90;;;;;;5045144;28;20078;-74
2022/06/17 02:15:16;;;;;;;12.50;10.30;;;14.20;99.90;;;;;;5048021;28;20055;-81
2022/06/17 02:17:45;;;;;;;11.20;9.80;;;14.10;99.90;;;;;;5060604;28;20463;-80
2022/06/17 02:20:13;;;;;;;14.13;9.70;;;14.10;99.90;;;;;;5061517;28;20029;-80
2022/06/17 02:22:39;;;;;;;13.73;9.43;;;14.10;99.90;;;;;;5064580;28;20048;-77
2022/06/17 02:25:09;;;;;;;11.50;9.40;;;14.10;99.90;;;;;;5064973;28;20102;-80
2022/06/17 02:27:35;;;;;;;13.25;10.13;;;14.20;99.90;;;;;;5061816;28;21359;-80
2022/06/17 02:30:04;;;;;;;15.35;10.48;;;14.20;99.90;;;;;;5062945;28;20064;-79
2022/06/17 02:32:31;;;;;;;11.65;10.57;;;14.00;99.90;;;;;;5046840;28;20059;-79
2022/06/17 02:35:14;;;;;;;12.68;9.35;;;14.00;99.90;;;;;;5064884;28;20066;-80
2022/06/17 02:37:40;;;;;;;16.30;10.93;;;13.90;99.90;;;;;;5064053;28;20052;-79
2022/06/17 02:40:25;;;;;;;14.02;10.32;;;13.90;99.90;;;;;;5052505;28;20414;-80
2022/06/17 02:42:52;;;;;;;13.20;10.18;;;13.80;99.90;;;;;;5062721;28;20047;-80
2022/06/17 02:45:23;;;;;;;14.18;10.75;;;13.80;99.90;;;;;;5062876;28;20085;-80
2022/06/17 02:47:50;;;;;;;12.20;10.90;;;13.80;99.90;;;;;;5054518;28;20396;-79
2022/06/17 02:50:22;;;;;;;13.70;10.20;;;13.80;99.90;;;;;;5064209;28;20041;-80
2022/06/17 02:52:49;;;;;;;11.25;9.95;;;13.80;99.90;;;;;;5058557;28;20115;-80
2022/06/17 02:55:35;;;;;;;14.27;9.85;;;13.90;99.90;;;;;;5064556;28;20049;-80
2022/06/17 02:58:42;;;;;;;12.85;10.60;;;13.90;99.90;;;;;;5061739;28;20064;-79
2022/06/17 03:01:15;;;;;;;17.20;10.23;;;13.90;99.90;;;;;;5031837;28;20112;-82
2022/06/17 03:03:42;;;;;;;10.60;9.57;;;14.00;99.90;;;;;;5062594;28;20052;-80
2022/06/17 03:06:19;;;;;;;11.57;9.85;;;14.00;99.90;;;;;;5064182;28;20044;-80
2022/06/17 03:08:49;;;;;;;12.65;10.30;;;14.00;99.90;;;;;;5063147;28;20068;-80
2022/06/17 03:11:15;;;;;;;13.07;10.07;;;14.00;99.90;;;;;;5064074;28;20091;-80
2022/06/17 03:13:49;;;;;;;10.85;9.00;;;14.00;99.90;;;;;;5042494;28;20527;-81
2022/06/17 03:16:16;;;;;;;17.30;9.43;;;14.00;99.90;;;;;;5061948;28;20090;-81
2022/06/17 03:18:44;;;;;;;12.88;10.25;;;14.10;99.90;;;;;;5060879;28;20075;-80
2022/06/17 03:21:10;;;;;;;13.73;9.73;;;14.00;99.90;;;;;;5062773;28;20045;-80
2022/06/17 03:24:02;;;;;;;11.88;9.27;;;14.00;99.90;;;;;;5045266;28;20043;-80
2022/06/17 03:26:40;;;;;;;11.23;9.35;;;14.10;99.90;;;;;;5064582;28;20044;-81
2022/06/17 03:29:07;;;;;;;14.50;9.98;;;14.10;99.90;;;;;;5059747;28;20090;-80
2022/06/17 03:31:43;;;;;;;16.08;9.15;;;14.10;99.90;;;;;;5063803;28;20052;-81
2022/06/17 03:34:18;;;;;;;15.27;9.93;;;14.10;99.90;;;;;;5063245;28;20531;-75
2022/06/17 03:36:58;;;;;;;9.73;8.73;;;14.20;99.90;;;;;;5062536;28;20054;-80
2022/06/17 03:39:34;;;;;;;12.00;9.15;;;14.30;99.90;;;;;;5061931;28;20151;-81
2022/06/17 03:42:07;;;;;;;19.65;9.07;;;14.30;99.90;;;;;;5061663;28;20056;-80
2022/06/17 03:44:37;;;;;;;10.10;9.13;;;14.30;99.90;;;;;;5060756;28;21245;-81
2022/06/17 03:47:20;;;;;;;13.00;9.57;;;14.40;99.90;;;;;;5061272;28;20674;-77
2022/06/17 03:49:54;;;;;;;13.02;8.45;;;14.50;99.90;;;;;;5062298;28;20163;-81
2022/06/17 03:52:45;;;;;;;10.80;8.75;;;14.50;99.90;;;;;;5048177;28;20125;-80
2022/06/17 03:55:16;;;;;;;11.10;9.68;;;14.60;99.90;;;;;;5061969;28;20075;-80
2022/06/17 03:57:44;;;;;;;9.65;8.25;;;14.50;99.90;;;;;;5059897;28;20029;-81
2022/06/17 04:00:34;;;;;;;9.32;8.10;;;14.60;99.90;;;;;;5059479;28;20084;-81
2022/06/17 04:03:03;;;;;;;12.95;8.57;;;14.60;99.90;;;;;;5062980;28;20776;-81
2022/06/17 04:05:30;;;;;;;13.57;8.38;;;14.80;99.90;;;;;;5062350;28;20044;-81
2022/06/17 04:07:56;;;;;;;10.88;7.50;;;14.80;99.90;;;;;;5060770;28;20107;-81
2022/06/17 04:10:31;;;;;;;12.27;7.82;;;14.80;99.90;;;;;;5061849;28;20083;-81
2022/06/17 04:12:57;;;;;;;13.20;7.85;;;14.90;99.90;;;;;;5060881;28;20036;-81
2022/06/17 04:15:40;;;;;;;9.15;7.85;;;14.90;99.90;;;;;;5044638;28;20475;-83
2022/06/17 04:18:08;;;;;;;12.82;7.70;;;14.90;99.90;;;;;;5059400;28;20127;-82
2022/06/17 04:20:54;;;;;;;11.23;8.20;;;14.90;99.90;;;;;;5051614;28;20398;-82
2022/06/17 04:23:33;;;;;;;9.82;8.52;;;15.00;99.90;;;;;;5053951;28;20421;-76
2022/06/17 04:26:17;;;;;;;8.40;7.47;;;15.00;99.90;;;;;;5062475;28;20055;-81
2022/06/17 04:28:50;;;;;;;10.07;7.70;;;15.10;99.90;;;;;;5060564;28;20098;-80
2022/06/17 04:31:20;;;;;;;20.65;8.05;;;15.20;99.90;;;;;;5062291;28;20080;-81
2022/06/17 04:33:53;;;;;;;8.98;7.97;;;15.10;99.90;;;;;;5061549;28;20499;-81
2022/06/17 04:36:28;;;;;;;9.77;7.22;;;15.10;99.90;;;;;;5061554;28;20408;-78
2022/06/17 04:38:59;;;;;;;10.80;7.05;;;15.10;99.90;;;;;;5060688;28;20052;-79
2022/06/17 04:41:31;;;;;;;15.18;7.38;;;15.10;99.90;;;;;;5059301;28;20509;-81
2022/06/17 04:43:59;;;;;;;9.88;7.90;;;15.10;99.90;;;;;;5054894;28;20033;-79
2022/06/17 04:46:28;;;;;;;10.02;7.18;;;15.00;99.90;;;;;;5044172;28;20112;-81
2022/06/17 04:48:57;;;;;;;9.20;6.57;;;15.10;99.90;;;;;;5040570;28;20059;-81
2022/06/17 04:51:26;;;;;;;9.40;6.35;;;15.10;99.90;;;;;;5055269;28;20323;-80
2022/06/17 04:53:53;;;;;;;13.77;8.30;;;15.20;99.90;;;;;;5060221;28;20040;-81
2022/06/17 04:56:38;;;;;;;16.70;9.80;;;15.20;99.90;;;;;;5060007;28;20056;-77
2022/06/17 04:59:16;;;;;;;19.30;9.35;;;15.10;99.90;;;;;;5062446;28;20067;-78
2022/06/17 05:01:42;;;;;;;9.65;7.50;;;15.20;99.90;;;;;;5061982;28;20097;-78
2022/06/17 05:04:08;;;;;;;11.77;9.27;;;15.20;99.90;;;;;;5054990;28;20125;-80
2022/06/17 05:06:34;;;;;;;9.65;7.93;;;15.20;99.90;;;;;;5058846;28;20043;-80
2022/06/17 05:09:24;;;;;;;11.05;7.55;;;15.30;99.90;;;;;;5050612;28;20407;-79
2022/06/17 05:11:55;;;;;;;10.20;7.72;;;15.20;99.90;;;;;;5061450;28;20444;-79
2022/06/17 05:14:34;;;;;;;10.70;7.28;;;15.30;99.90;;;;;;5060988;28;20388;-74
2022/06/17 05:16:59;;;;;;;11.32;8.00;;;15.40;99.90;;;;;;5059949;28;20048;-80
2022/06/17 05:19:25;;;;;;;11.07;7.35;;;15.30;99.90;;;;;;5065413;28;20463;-79
2022/06/17 05:21:51;;;;;;;14.48;8.20;;;15.40;99.90;;;;;;5062853;28;20590;-79
2022/06/17 05:24:17;;;;;;;15.18;8.35;;;15.40;99.90;;;;;;5066349;28;20128;-80
2022/06/17 05:26:42;;;;;;;11.20;8.43;;;15.40;99.90;;;;;;5062850;28;20116;-80
2022/06/17 05:29:09;;;;;;;9.55;8.57;;;15.40;99.90;;;;;;5058418;28;20052;-75
2022/06/17 05:31:35;;;;;;;10.20;8.63;;;15.50;99.90;;;;;;5061151;28;20044;-79
2022/06/17 05:34:03;;;;;;;12.60;9.40;;;15.50;99.90;;;;;;5062468;28;20055;-78
2022/06/17 05:36:28;;;;;;;11.10;8.25;;;15.60;99.90;;;;;;5061963;28;20105;-79
2022/06/17 05:38:54;;;;;;;9.35;8.35;;;15.60;99.90;;;;;;5064885;28;20117;-79
2022/06/17 05:41:24;;;;;;;15.82;8.15;;;15.60;99.90;;;;;;5061732;28;20403;-77
2022/06/17 05:43:50;;;;;;;10.30;8.75;;;15.70;99.90;;;;;;5047374;28;20049;-79
2022/06/17 05:46:19;;;;;;;11.32;7.65;;;15.70;99.90;;;;;;5066274;28;20097;-80
2022/06/17 05:48:44;;;;;;;13.35;8.43;;;15.80;99.90;;;;;;5064595;28;20045;-80
2022/06/17 05:51:11;;;;;;;19.65;8.85;;;15.80;99.90;;;;;;5047607;28;20037;-79
2022/06/17 05:53:36;;;;;;;13.18;7.78;;;15.90;99.90;;;;;;5045250;28;20392;-80
2022/06/17 05:56:02;;;;;;;11.55;7.38;;;15.80;99.90;;;;;;5048467;28;20048;-81
2022/06/17 05:58:28;;;;;;;10.23;7.00;;;15.90;99.90;;;;;;5064991;28;20102;-82
2022/06/17 06:00:54;;;;;;;9.98;7.95;;;16.00;99.90;;;;;;5064245;28;20123;-81
2022/06/17 06:03:24;;;;;;;10.93;8.35;;;16.00;99.90;;;;;;5066134;28;20044;-79
2022/06/17 06:05:50;;;;;;;14.15;8.13;;;16.00;99.90;;;;;;5058570;28;20045;-80
2022/06/17 06:08:16;;;;;;;13.10;8.63;;;16.10;99.90;;;;;;5065312;28;20046;-81
2022/06/17 06:10:43;;;;;;;10.80;8.05;;;16.20;99.90;;;;;;5062435;28;20390;-80
2022/06/17 06:13:17;;;;;;;11.98;8.35;;;16.30;99.90;;;;;;5065445;28;20059;-80
2022/06/17 06:15:46;;;;;;;11.38;8.73;;;16.30;99.90;;;;;;5064838;28;20041;-83
2022/06/17 06:18:16;;;;;;;10.52;9.15;;;16.40;99.90;;;;;;5064571;28;20423;-83
2022/06/17 06:20:42;;;;;;;10.70;8.97;;;16.50;99.90;;;;;;5063714;28;20582;-79
2022/06/17 06:23:08;;;;;;;9.70;8.43;;;16.60;99.90;;;;;;5049910;28;20492;-78
2022/06/17 06:25:34;;;;;;;10.80;9.30;;;16.70;99.90;;;;;;5064012;28;20048;-80
2022/06/17 06:28:17;;;;;;;12.13;8.63;;;16.80;99.90;;;;;;5037618;28;20052;-81
2022/06/17 06:30:49;;;;;;;8.73;7.72;;;16.90;99.90;;;;;;5065339;28;20095;-80
2022/06/17 06:33:14;;;;;;;11.65;8.45;;;17.00;99.90;;;;;;5065224;28;20039;-79
2022/06/17 06:35:40;;;;;;;12.85;8.45;;;17.00;99.90;;;;;;5064441;28;20044;-80
2022/06/17 06:38:06;;;;;;;9.50;7.70;;;17.10;99.90;;;;;;5062987;28;20033;-87
2022/06/17 06:40:32;;;;;;;12.05;8.07;;;17.20;99.90;;;;;;5063166;28;20372;-80
2022/06/17 06:42:58;;;;;;;9.30;7.80;;;17.30;99.90;;;;;;5062431;28;20047;-79
2022/06/17 06:45:31;;;;;;;16.48;8.90;;;17.30;99.90;;;;;;5061488;28;20040;-78
2022/06/17 06:47:59;;;;;;;11.05;8.40;;;17.40;99.90;;;;;;5061203;28;20040;-78
2022/06/17 06:50:27;;;;;;;9.85;7.97;;;17.40;99.90;;;;;;5063672;28;20086;-79
2022/06/17 06:52:53;;;;;;;8.88;6.97;;;17.40;99.90;;;;;;5063940;28;20127;-80
2022/06/17 06:55:18;;;;;;;8.73;7.80;;;17.40;99.90;;;;;;5062484;28;20135;-77
2022/06/17 06:57:46;;;;;;;12.02;8.63;;;17.40;99.90;;;;;;5064404;28;20116;-82
2022/06/17 07:00:15;;;;;;;9.65;8.65;;;17.50;99.90;;;;;;5061566;28;20055;-79
2022/06/17 07:02:41;;;;;;;14.57;9.18;;;17.60;99.90;;;;;;5063657;28;20430;-79
2022/06/17 07:05:08;;;;;;;13.93;8.80;;;17.60;99.90;;;;;;5057169;28;20045;-79
2022/06/17 07:07:33;;;;;;;11.15;7.50;;;17.60;99.90;;;;;;5060780;28;20024;-80
2022/06/17 07:09:59;;;;;;;8.25;7.38;;;17.70;99.90;;;;;;5060670;28;20060;-80
2022/06/17 07:12:25;;;;;;;11.45;8.10;;;17.90;99.90;;;;;;5057445;28;20028;-81
2022/06/17 07:14:50;;;;;;;8.63;7.13;;;18.00;99.90;;;;;;5059756;28;20403;-80
2022/06/17 07:17:16;;;;;;;9.57;8.57;;;18.10;99.90;;;;;;5061593;28;20120;-80
2022/06/17 07:19:42;;;;;;;13.55;7.57;;;18.40;99.90;;;;;;5063110;28;20041;-82
2022/06/17 07:22:07;;;;;;;14.82;8.60;;;18.70;99.90;;;;;;5065847;28;20471;-82
2022/06/17 07:24:33;;;;;;;10.50;6.88;;;19.10;99.90;;;;;;5065053;28;20056;-85
2022/06/17 07:26:59;;;;;;;12.02;7.30;;;19.40;99.90;;;;;;5061292;28;20040;-83
2022/06/17 07:29:24;;;;;;;8.63;6.78;;;19.40;99.90;;;;;;5060311;28;20226;-82
2022/06/17 07:31:50;;;;;;;9.63;7.82;;;19.40;99.90;;;;;;5063352;28;20082;-85
2022/06/17 07:34:16;;;;;;;9.60;7.22;;;19.40;99.90;;;;;;5028196;28;20074;-85
2022/06/17 07:42:10;;;;;;;11.70;6.93;;;19.50;99.90;;;;;;5059307;28;20101;-85
2022/06/17 07:44:37;;;;;;;10.02;7.10;;;19.50;99.90;;;;;;5060206;28;20363;-82
2022/06/17 07:47:03;;;;;;;8.15;6.93;;;19.50;99.90;;;;;;5063171;28;20044;-77
2022/06/17 07:49:29;;;;;;;7.97;7.13;;;19.60;99.90;;;;;;5063872;28;20052;-82
2022/06/17 07:51:55;;;;;;;9.95;7.45;;;19.70;99.90;;;;;;5064285;28;20045;-82
2022/06/17 07:54:21;;;;;;;11.55;6.35;;;19.80;99.90;;;;;;5065178;28;20401;-81
2022/06/17 07:56:46;;;;;;;15.10;6.90;;;19.90;99.90;;;;;;5056377;28;20082;-87
2022/06/17 07:59:12;;;;;;;9.35;7.40;;;19.80;99.90;;;;;;5079671;28;20039;-88
2022/06/17 08:01:38;;;;;;;11.82;7.45;;;19.90;99.90;;;;;;5070583;28;20084;-87
2022/06/17 08:04:04;;;;;;;10.27;6.20;;;20.00;99.90;;;;;;5069608;28;20395;-79
2022/06/17 08:06:30;;;;;;;10.27;7.18;;;20.00;99.90;;;;;;5067236;28;20041;-86
2022/06/17 08:08:56;;;;;;;10.30;6.05;;;19.90;99.90;;;;;;5052037;28;20047;-83
2022/06/17 08:11:21;;;;;;;9.05;6.80;;;20.20;99.90;;;;;;5067604;28;20150;-83
2022/06/17 08:13:49;;;;;;;9.50;7.07;;;20.50;99.90;;;;;;5065406;28;20056;-83
2022/06/17 08:16:15;;;;;;;8.07;7.05;;;20.60;99.90;;;;;;5062329;28;20133;-82
2022/06/17 08:18:41;;;;;;;10.90;7.15;;;21.00;99.90;;;;;;5063188;28;20048;-82
2022/06/17 08:21:08;;;;;;;11.23;7.47;;;21.30;99.90;;;;;;5046813;28;20044;-82
2022/06/17 08:23:34;;;;;;;13.85;9.10;;;21.70;99.90;;;;;;5063476;28;20123;-83
2022/06/17 08:26:00;;;;;;;10.75;7.00;;;21.60;99.90;;;;;;5061560;28;20123;-83
2022/06/17 08:28:26;;;;;;;11.93;6.10;;;21.70;99.90;;;;;;5060721;28;20570;-83
2022/06/17 08:30:55;;;;;;;8.38;6.28;;;21.60;99.90;;;;;;5063886;28;20643;-83
2022/06/17 08:33:27;;;;;;;15.65;6.72;;;21.50;99.90;;;;;;5063597;28;20384;-83
2022/06/17 08:35:55;;;;;;;14.18;8.52;;;21.20;99.90;;;;;;5062290;28;20080;-84
2022/06/17 08:38:26;;;;;;;14.70;7.40;;;21.10;99.90;;;;;;5063025;28;20407;-81
2022/06/17 08:40:54;;;;;;;15.75;8.25;;;21.20;99.90;;;;;;5061343;28;20091;-84
2022/06/17 08:43:44;;;;;;;12.90;6.65;;;21.20;99.90;;;;;;5060689;28;20567;-78
2022/06/17 08:46:32;;;;;;;10.30;6.50;;;21.10;99.90;;;;;;5063527;28;20048;-84
2022/06/17 08:49:24;;;;;;;11.05;7.00;;;21.20;99.90;;;;;;5062613;28;20631;-82
2022/06/17 08:52:13;;;;;;;10.57;4.85;;;21.30;99.90;;;;;;5063244;28;20044;-85
2022/06/17 08:55:00;;;;;;;8.93;5.57;;;21.30;99.90;;;;;;5062454;28;20051;-82
2022/06/17 08:57:41;;;;;;;11.32;5.45;;;21.40;99.90;;;;;;5055224;28;20381;-86
2022/06/17 09:00:16;;;;;;;10.45;5.38;;;21.50;99.90;;;;;;5060579;28;20396;-84
2022/06/17 09:03:13;;;;;;;7.47;4.63;;;21.70;99.90;;;;;;5061956;28;20040;-84
2022/06/17 09:05:41;;;;;;;9.35;5.00;;;21.80;99.90;;;;;;5052754;28;20215;-77
2022/06/17 09:08:25;;;;;;;8.75;4.85;;;22.00;99.90;;;;;;5063444;28;20124;-84
2022/06/17 09:11:05;;;;;;;8.52;5.10;;;22.10;99.90;;;;;;5054619;28;20036;-85
2022/06/17 09:13:57;;;;;;;9.50;5.45;;;22.00;99.90;;;;;;5063489;28;20043;-84
2022/06/17 09:16:40;;;;;;;9.52;5.53;;;21.90;99.90;;;;;;5062692;28;20432;-82
2022/06/17 09:19:08;;;;;;;10.88;5.22;;;21.90;99.90;;;;;;5062490;28;20045;-83
2022/06/17 09:21:39;;;;;;;7.57;4.53;;;21.90;99.90;;;;;;5062841;28;20049;-84
2022/06/17 09:24:08;;;;;;;8.73;4.50;;;21.90;99.90;;;;;;5062361;28;20048;-84
2022/06/17 09:26:45;;;;;;;14.77;3.78;;;21.90;99.90;;;;;;5051322;28;20119;-84
2022/06/17 09:29:35;;;;;;;6.85;4.60;;;22.10;99.90;;;;;;5062667;28;20040;-83
2022/06/17 09:32:31;;;;;;;9.00;4.95;;;22.30;99.90;;;;;;5061278;28;20041;-82
2022/06/17 09:35:13;;;;;;;6.45;4.57;;;22.50;99.90;;;;;;5032173;28;20728;-83
2022/06/17 09:37:58;;;;;;;8.60;5.65;;;22.80;99.90;;;;;;5061394;28;20517;-79
2022/06/17 09:40:31;;;;;;;9.20;5.10;;;22.90;99.90;;;;;;5060590;28;20037;-82
2022/06/17 09:43:11;;;;;;;8.55;5.65;;;23.00;99.90;;;;;;5062234;28;20124;-83
2022/06/17 09:45:48;;;;;;;8.35;4.95;;;22.90;99.90;;;;;;5044339;28;20087;-81
2022/06/17 09:48:20;;;;;;;10.40;5.38;;;22.70;99.90;;;;;;5061179;28;20110;-81
2022/06/17 09:51:15;;;;;;;8.63;6.05;;;22.80;99.90;;;;;;5061953;28;20056;-82
2022/06/17 09:53:47;;;;;;;9.30;6.35;;;23.00;99.90;;;;;;5058839;28;20048;-81
2022/06/17 09:56:22;;;;;;;15.55;6.30;;;23.00;99.90;;;;;;5059963;28;20491;-81
2022/06/17 09:58:54;;;;;;;8.70;5.45;;;23.20;99.90;;;;;;5042794;28;20114;-81
2022/06/17 10:01:19;;;;;;;8.05;6.28;;;23.20;99.90;;;;;;5030242;28;20362;-75
2022/06/17 10:03:45;;;;;;;9.07;5.78;;;23.30;99.90;;;;;;5065555;28;20127;-83
2022/06/17 10:06:35;;;;;;;10.65;6.35;;;23.40;99.90;;;;;;5065740;28;20037;-82
2022/06/17 10:09:26;;;;;;;11.75;6.50;;;23.40;99.90;;;;;;5066555;28;20049;-82
2022/06/17 10:12:07;;;;;;;7.45;6.57;;;23.40;99.90;;;;;;5060415;28;20565;-83
2022/06/17 10:15:10;;;;;;;8.98;5.70;;;23.50;99.90;;;;;;5047936;28;20040;-81
2022/06/17 10:21:04;;;;;;;7.28;5.80;;;23.70;99.90;;;;;;5064728;28;20044;-81
2022/06/17 10:24:17;;;;;;;7.38;5.60;;;23.90;99.90;;;;;;5064484;28;20085;-81
2022/06/17 10:27:08;;;;;;;6.85;5.90;;;23.90;99.90;;;;;;4993534;28;20052;-80
2022/06/17 10:29:48;;;;;;;7.93;5.40;;;24.00;99.90;;;;;;4982768;28;20548;-82
2022/06/17 10:32:14;;;;;;;7.18;5.40;;;24.00;99.90;;;;;;5041600;28;20527;-81
2022/06/17 10:34:47;;;;;;;7.47;4.13;;;24.00;99.90;;;;;;5064348;28;20055;-78
2022/06/17 10:37:13;;;;;;;8.13;4.63;;;24.10;99.90;;;;;;5061680;28;20063;-82
2022/06/17 10:39:40;;;;;;;5.30;3.28;;;24.30;99.90;;;;;;5062896;28;20692;-82
2022/06/17 10:42:09;;;;;;;7.88;4.53;;;24.40;99.90;;;;;;5046468;28;20052;-81
2022/06/17 10:44:36;;;;;;;6.90;5.25;;;24.20;99.90;;;;;;5064559;28;20040;-82
2022/06/17 10:47:39;;;;;;;11.55;4.97;;;24.30;99.90;;;;;;5063288;28;20045;-83
2022/06/17 10:50:22;;;;;;;4.95;3.47;;;24.30;99.90;;;;;;5064223;28;20052;-80
2022/06/17 10:53:24;;;;;;;3.78;3.30;;;24.60;99.90;;;;;;5063798;28;20380;-82
2022/06/17 10:55:55;;;;;;;7.57;3.55;;;24.80;99.90;;;;;;5063524;28;20052;-80
2022/06/17 10:58:23;;;;;;;5.30;3.45;;;24.80;99.90;;;;;;5046124;28;20041;-75
2022/06/17 11:00:58;;;;;;;5.63;3.35;;;24.80;99.90;;;;;;5064183;28;20066;-80
2022/06/17 11:03:28;;;;;;;4.20;3.30;;;24.60;99.90;;;;;;5064044;28;20048;-82
2022/06/17 11:06:01;;;;;;;8.75;4.28;;;24.70;99.90;;;;;;5062920;28;20089;-82
2022/06/17 11:08:52;;;;;;;9.27;3.50;;;24.60;99.90;;;;;;5067404;28;20055;-82
2022/06/17 11:14:23;;;;;;;7.45;3.72;;;24.60;99.90;;;;;;5062525;28;20049;-82
2022/06/17 11:16:49;;;;;;;9.02;4.13;;;24.70;99.90;;;;;;5063695;28;20572;-81
2022/06/17 11:19:19;;;;;;;5.95;4.18;;;24.80;99.90;;;;;;5063944;28;20052;-82
2022/06/17 11:21:49;;;;;;;7.17;5.10;;;24.70;99.90;;;;;;5064508;28;20047;-82
2022/06/17 11:24:28;;;;;;;3.45;3.05;;;25.10;99.90;;;;;;5062244;28;20411;-82
2022/06/17 11:27:22;;;;;;;12.25;4.22;;;25.10;99.90;;;;;;5063892;28;20047;-82
2022/06/17 11:29:51;;;;;;;7.95;3.30;;;25.20;99.90;;;;;;5062404;28;20092;-79
2022/06/17 11:32:19;;;;;;;6.72;3.75;;;25.20;99.90;;;;;;5043984;28;20083;-83
2022/06/17 11:34:52;;;;;;;8.20;3.92;;;25.40;99.90;;;;;;5043749;28;20044;-82
2022/06/17 11:37:21;;;;;;;5.00;3.92;;;25.60;99.90;;;;;;5049121;28;20416;-82
2022/06/17 11:39:47;;;;;;;7.38;3.70;;;25.90;99.90;;;;;;5062832;28;20037;-82
2022/06/17 11:42:19;;;;;;;11.50;3.97;;;25.90;99.90;;;;;;5064062;28;20044;-82
2022/06/17 11:44:58;;;;;;;5.75;3.63;;;26.00;99.90;;;;;;5062547;28;20368;-82
2022/06/17 11:47:26;;;;;;;10.25;4.32;;;26.00;99.90;;;;;;5063482;28;20063;-82
2022/06/17 11:49:58;;;;;;;6.20;2.65;;;25.80;99.90;;;;;;5065170;28;20062;-82
2022/06/17 11:52:32;;;;;;;11.73;4.20;;;25.80;99.90;;;;;;5063595;28;20086;-82
2022/06/17 11:54:59;;;;;;;9.07;2.70;;;26.00;99.90;;;;;;5061299;28;20411;-82
2022/06/17 11:57:34;;;;;;;8.55;3.28;;;25.90;99.90;;;;;;5062882;28;20360;-82
2022/06/17 12:00:04;;;;;;;6.15;3.25;;;25.80;99.90;;;;;;5066058;28;20534;-82
2022/06/17 12:02:30;;;;;;;5.03;2.85;;;25.90;99.90;;;;;;5080271;28;20422;-82
2022/06/17 12:05:19;;;;;;;8.40;2.83;;;26.10;99.90;;;;;;5077869;28;20044;-82
2022/06/17 12:08:08;;;;;;;5.53;3.72;;;26.30;99.90;;;;;;5076699;28;20036;-82
2022/06/17 12:10:50;;;;;;;6.03;3.75;;;26.20;99.90;;;;;;5075357;28;20044;-82
2022/06/17 12:13:19;;;;;;;6.25;2.85;;;26.40;99.90;;;;;;5078497;28;20041;-81
2022/06/17 12:15:46;;;;;;;4.53;2.85;;;26.60;99.90;;;;;;5078272;28;20497;-83
2022/06/17 12:18:28;;;;;;;6.43;3.00;;;26.80;99.90;;;;;;5075509;28;20040;-82
2022/06/17 12:21:29;;;;;;;8.13;3.58;;;26.60;99.90;;;;;;5075634;28;20062;-84
2022/06/17 12:24:23;;;;;;;7.15;3.13;;;26.80;99.90;;;;;;5070060;28;20063;-87
2022/06/17 12:26:59;;;;;;;5.32;2.67;;;26.50;99.90;;;;;;5059938;28;20035;-81
2022/06/17 12:29:36;;;;;;;8.82;3.10;;;27.00;99.90;;;;;;5051104;28;20048;-80
2022/06/17 12:32:14;;;;;;;6.82;2.90;;;27.30;99.90;;;;;;5053569;28;20037;-77
2022/06/17 12:34:53;;;;;;;6.82;3.72;;;27.00;99.90;;;;;;5064338;28;20024;-78
2022/06/17 12:37:53;;;;;;;5.88;3.58;;;27.20;99.90;;;;;;5073033;28;20036;-81
2022/06/17 12:40:39;;;;;;;3.92;2.50;;;26.90;99.90;;;;;;5052539;28;20041;-78
2022/06/17 12:43:35;;;;;;;3.30;2.35;;;27.20;99.90;;;;;;5046653;28;20033;-79
2022/06/17 12:46:10;;;;;;;5.78;2.50;;;26.90;99.90;;;;;;5051867;28;20041;-76
2022/06/17 12:48:54;;;;;;;7.78;3.78;;;27.00;99.90;;;;;;5056407;28;20052;-82
2022/06/17 12:54:38;;;;;;;2.67;2.03;;;26.90;99.90;;;;;;5067949;28;20372;-82
2022/06/17 12:57:11;;;;;;;10.35;2.70;;;27.00;99.90;;;;;;5064752;28;20072;-78
2022/06/17 13:00:07;;;;;;;9.18;2.75;;;26.90;99.90;;;;;;5067243;28;20040;-82
2022/06/17 13:03:03;;;;;;;3.17;2.38;;;26.90;99.90;;;;;;5064989;28;20043;-77
2022/06/17 13:05:36;;;;;;;6.82;2.42;;;27.10;99.90;;;;;;5061826;28;20529;-81
2022/06/17 13:08:06;;;;;;;5.03;2.67;;;26.90;99.90;;;;;;5051490;28;20361;-81
2022/06/17 13:10:47;;;;;;;5.30;2.75;;;26.60;99.90;;;;;;5061835;28;20051;-82
2022/06/17 13:13:54;;;;;;;3.17;2.30;;;26.60;99.90;;;;;;5027043;28;20394;-82
2022/06/17 13:16:20;;;;;;;5.07;2.40;;;26.80;99.90;;;;;;5008606;28;20045;-77
2022/06/17 13:18:56;;;;;;;4.97;3.08;;;26.80;99.90;;;;;;5025415;28;20403;-83
2022/06/17 13:21:44;;;;;;;3.75;2.53;;;27.00;99.90;;;;;;5062092;28;20542;-82
2022/06/17 13:24:21;;;;;;;3.60;2.63;;;27.20;99.90;;;;;;5043521;28;20056;-82
2022/06/17 13:27:10;;;;;;;4.32;2.75;;;27.00;99.90;;;;;;5060073;28;20032;-82